Create Tblcommutelog Verified Points Advance Search
| # | Trip ID | Id Commuter | Trip Date | Trip Num | Current Lat | Current Lng | Delta Distance | Current Time | Activity | Activity Confidence | Current Speed | |
|---|---|---|---|---|---|---|---|---|---|---|---|---|
| 70841 | 250715_783628_16651358_1644 | 783628 | (not set) | (not set) | 38.864360586387 | -77.080115618861 | 5.281 | 2025-07-15 17:30:58 | in_vehicle | 100 | 0 | |
| 70842 | 250715_783628_16651358_1643 | 783628 | (not set) | (not set) | 38.864360586387 | -77.080115618861 | 5.281 | 2025-07-15 17:30:58 | in_vehicle | 100 | 0 | |
| 70843 | 250715_783628_16651358_1643 | 783628 | (not set) | (not set) | 38.864360586387 | -77.080115618861 | 5.281 | 2025-07-15 17:30:58 | in_vehicle | 100 | 0 | |
| 70844 | 250715_773255_16654910_1710 | 773255 | (not set) | (not set) | 38.859014677607 | -77.048950219613 | 4.7644 | 2025-07-15 17:30:56 | in_vehicle | 100 | -0.44703925898772 | |
| 70845 | 250715_773255_16654910_1710 | 773255 | (not set) | (not set) | 38.862460319943 | -77.058847424764 | 4.7644 | 2025-07-15 17:30:56 | in_vehicle | 100 | -0.44703925898772 | |
| 70846 | 250715_784713_16652709_1719 | 784713 | (not set) | (not set) | 39.322917590152 | -76.628455243888 | 1.7464 | 2025-07-15 17:30:59 | on_bicycle | 100 | 1.493111125019 | |
| 70847 | 250715_783292_16651014_1628 | 783292 | (not set) | (not set) | 38.883721460302 | -77.227594286809 | 22.7767 | 2025-07-15 17:30:59 | in_vehicle | 100 | 7.0453387216465 | |
| 70848 | 250715_738572_16603589_1644 | 738572 | (not set) | (not set) | 38.955415612474 | -76.706885911349 | 18.3117 | 2025-07-15 17:31:00 | in_vehicle | 100 | 16.692445930602 | |
| 70849 | 250715_786931_16655349_1722 | 786931 | (not set) | (not set) | 38.919421575421 | -76.975367649666 | 0.5428 | 2025-07-15 17:31:00 | still | 33 | -0.44703925898772 | |
| 70850 | 250715_786931_16655349_1722 | 786931 | (not set) | (not set) | 38.92956628644 | -76.962174987757 | 3.249 | 2025-07-15 17:31:00 | still | 33 | -0.44703925898772 | |
| 70851 | 250715_785987_16654242_1644 | 785987 | (not set) | (not set) | 39.36907976963 | -76.615190965814 | 15.8432 | 2025-07-15 17:31:02 | in_vehicle | 100 | 2.1636700135006 | |
| 70852 | 250715_786722_16655097_1609 | 786722 | (not set) | (not set) | 39.407861652415 | -77.404847613106 | 39.3731 | 2025-07-15 17:31:03 | unknown | 100 | 7.0498091142364 | |
| 70853 | 250715_775339_16651697_1641 | 775339 | (not set) | (not set) | 38.979100976021 | -77.436448395949 | 27.906 | 2025-07-15 17:31:01 | in_vehicle | 100 | 4.8906094933257 | |
| 70854 | 250715_786823_16655207_1530 | 786823 | (not set) | (not set) | 38.900860432053 | -76.979850803949 | 39.1252 | 2025-07-15 17:31:03 | unknown | 100 | -0.44703925898772 | |
| 70855 | 250715_786823_16655207_1530 | 786823 | (not set) | (not set) | 38.900860432053 | -76.979850803949 | 39.1252 | 2025-07-15 17:31:03 | unknown | 100 | -0.44703925898772 | |
| 70856 | 250715_782599_16652995_1700 | 782599 | (not set) | (not set) | 38.984641117739 | -77.093421143393 | 6.3074 | 2025-07-15 17:31:04 | on_foot | 100 | 0.6884404588411 | |
| 70857 | 250715_787067_16655498_1646 | 787067 | (not set) | (not set) | 39.066417936061 | -77.031077287715 | 13.8213 | 2025-07-15 17:31:04 | in_vehicle | 100 | 0 | |
| 70858 | 250715_787067_16655498_1646 | 787067 | (not set) | (not set) | 39.066417936061 | -77.031077287715 | 13.8213 | 2025-07-15 17:31:04 | in_vehicle | 100 | 0 | |
| 70859 | 250715_785264_16653381_1602 | 785264 | (not set) | (not set) | 38.91168356659 | -77.488923498783 | 32.0106 | 2025-07-15 17:31:06 | in_vehicle | 100 | 6.9514604772591 | |
| 70860 | 250715_772509_16639785_1609 | 772509 | (not set) | (not set) | 38.652509666667 | -76.973354166667 | 24.5675 | 2025-07-15 17:31:06 | in_vehicle | 100 | 6.4641876849625 |